Tiempo atmosférico en la estación meteorológica de Arevalo, Ávila (820 m.)



Fecha
DESCASC
Temp. máxima en grados centígrados (hora)
DESCASC
Temp. mínima en grados centígrados (hora)
DESCASC
Temp. media en grados centígrados
DESCASC
Racha de viento máxima en m/sg (hora)
DESCASC
Velocidad máxima media en intervalos de 10 minutos(hora)
DESCASC
Precipitaciones diarias en mm
DESCASC
Precipitaciones de 00:00 a 06:00 en mm
DESCASC
Precipitaciones de 06:00 a 12:00 en mm
DESCASC
Precipitaciones de 12:00 a 18:00 en mm
DESCASC
Precipitaciones de 18:00 a 24:00 en mm
DESCASC
24-09-2020 20.1 (16:10) 11.7 (23:59) 15.9 13.61 (15:20) 8.06 (18:50) 0 0 0 0 0
23-09-2020 20.7 (14:40) 13.4 (00:00) 17.1 11.94 (17:50) 6.67 (17:50) 1.2 0 0.4 0.8 0
22-09-2020 22.5 (17:30) 9.8 (00:00) 16.2 9.17 (17:40) 5.28 (18:00) 0 0 0 0 0
21-09-2020 21.6 (17:40) 10.2 (00:00) 15.9 5.56 (16:10) 2.78 (02:20) 0.2 0 0 0.2 0
20-09-2020 19.5 (18:20) 14.6 (00:00) 17.1 10.56 (17:50) 7.5 (17:50) 10 0 1.6 4.6 3.8
19-09-2020 20.6 (16:50) 12.9 (00:00) 16.8 15 (11:10) 8.89 (11:20) 5.2 4.8 0.4 0 0
18-09-2020 22.4 (14:40) 12.8 (00:00) 17.6 14.17 (18:00) 9.17 (18:00) 23.8 8.4 7.2 0.6 7.6
17-09-2020 25.7 (16:50) 16 (00:00) 20.9 13.33 (21:50) 8.61 (13:40) 10.2 0 0 0 10.2
16-09-2020 29.6 (16:20) 11.8 (00:00) 20.7 13.61 (23:10) 8.33 (23:10) 0 0 0 0 0
15-09-2020 28.2 (17:30) 13.5 (00:00) 20.9 12.78 (01:20) 6.11 (01:20) 7.8 7.6 0 0.2 0
14-09-2020 30.1 (16:50) 15.6 (00:00) 22.9 22.78 (22:30) 12.22 (22:40) 6.2 0 0 0 6.2
13-09-2020 32.7 (15:20) 13.8 (00:00) 23.3 8.89 (17:20) 5.83 (17:20) 0 0 0 0 0
12-09-2020 31.9 (18:00) 10.6 (00:00) 21.3 7.5 (12:30) 4.44 (12:40) 0 0 0 0 0
11-09-2020 30.4 (17:50) 10.1 (00:00) 20.3 6.39 (15:40) 3.33 (19:30) 0 0 0 0 0
10-09-2020 29.2 (17:10) 9 (00:00) 19.1 6.39 (17:00) 3.33 (15:30) 0 0 0 0 0
09-09-2020 28.5 (15:30) 9.5 (00:00) 19 6.94 (16:40) 4.17 (19:00) 0 0 0 0 0
08-09-2020 27.6 (18:10) 5.2 (00:00) 16.4 8.89 (17:00) 3.06 (01:50) 0 0 0 0 0
07-09-2020 23.9 (17:50) 9.4 (08:20) 16.6 8.61 (16:00) 4.17 (10:50) 0 0 0 0 0
06-09-2020 29.5 (16:40) 12.3 (00:00) 20.9 8.33 (20:10) 4.72 (20:10) 0 0 0 0 0
05-09-2020 32.9 (16:50) 13.6 (00:00) 23.3 8.89 (20:40) 5 (20:50) 0 0 0 0 0
04-09-2020 33.4 (17:50) 12.4 (00:00) 22.9 7.5 (16:30) 3.61 (16:30) 0 0 0 0 0
03-09-2020 31.1 (17:00) 8.7 (00:00) 19.9 6.39 (13:30) 2.78 (23:20) 0 0 0 0 0
02-09-2020 28 (16:50) 7.6 (00:00) 17.8 7.22 (17:50) 4.17 (18:50) 0 0 0 0 0
01-09-2020 27.4 (16:20) 11.6 (00:00) 19.5 6.39 (16:40) 3.61 (16:50) 0 0 0 0 0
31-08-2020 24.4 (17:40) 3.9 (00:00) 14.1 9.17 (14:10) 3.33 (19:00) 0 0 0 0 0
30-08-2020 20.2 (18:10) 5 (00:00) 12.6 7.5 (16:40) 3.61 (17:30) 0 0 0 0 0
29-08-2020 20.4 (17:50) 9.1 (00:00) 14.8 12.78 (18:30) 7.22 (18:40) 0.2 0 0 0.2 0
28-08-2020 27.5 (16:00) 15.9 (00:00) 21.7 11.67 (16:50) 6.11 (17:00) 0 0 0 0 0
27-08-2020 33.5 (17:20) 15.1 (00:00) 24.3 6.94 (19:10) 3.89 (21:30) 0 0 0 0 0
26-08-2020 34.1 (17:50) 13.1 (00:00) 23.6 7.78 (16:00) 4.17 (16:50) 0 0 0 0 0

Gráficas

Temp. máximas Temp. mínimas Temp. medias Precipitaciones Rachas de viento máximas Velocidades máximas media en intervalos de 10 minutos

Datos horarios

Fecha y hora oficial Temperatura (ºC) Velocidad del viento (km/h) Dirección del viento Racha (km/h) Dirección de racha Precipitación (mm) Presión (hPa) Tendencia (hPa) Humedad (%)
2020-09-24 23:00:00 13 12 Oeste 31 Oeste 0 -- -- 65
2020-09-24 22:00:00 13.7 18 Oeste 30 Noroeste 0 -- -- 60
2020-09-24 21:00:00 14.7 15 Noroeste 39 Oeste 0 -- -- 57
2020-09-24 20:00:00 16.6 22 Noroeste 48 Noroeste 0 -- -- 48
2020-09-24 19:00:00 18.5 26 Noroeste 48 Oeste 0 -- -- 44
2020-09-24 18:00:00 19.4 24 Oeste 48 Noroeste 0 -- -- 45
2020-09-24 17:00:00 19.9 28 Oeste 48 Oeste 0 -- -- 45
2020-09-24 16:00:00 19.9 22 Oeste 49 Oeste 0 -- -- 53
2020-09-24 15:00:00 18.7 22 Oeste 44 Oeste 0 -- -- 56
2020-09-24 14:00:00 17.5 21 Noroeste 39 Oeste 0 -- -- 64
2020-09-24 13:00:00 16.9 19 Oeste 33 Oeste 0 -- -- 62
2020-09-24 12:00:00 15.4 16 Oeste 29 Noroeste 0 -- -- 79
2020-09-24 11:00:00 14.3 14 Noroeste 27 Noroeste 0 -- -- 84
2020-09-24 10:00:00 14.3 13 Noroeste 22 Oeste 0 -- -- 88
2020-09-24 09:00:00 14.1 8 Oeste 20 Oeste 0 -- -- 90
2020-09-24 08:00:00 14 8 Noroeste 19 Noroeste 0 -- -- 89
2020-09-24 07:00:00 14.2 9 Oeste 18 Oeste 0 -- -- 90
2020-09-24 06:00:00 14.5 6 Oeste 14 Oeste 0 -- -- 90
2020-09-24 05:00:00 14.8 7 Oeste 14 Noroeste 0 -- -- 90
2020-09-24 04:00:00 15 7 Oeste 20 Noroeste 0 -- -- 89
2020-09-24 03:00:00 15.2 10 Oeste 18 Oeste 0 -- -- 89
2020-09-24 02:00:00 14.4 9 Sudoeste 18 Oeste 0 -- -- 90
2020-09-24 01:00:00 14.4 10 Sudoeste 16 Sudoeste 0 -- -- 91
2020-09-24 00:00:00 14.9 6 Sudoeste 19 Sudoeste 0 -- -- 89
2020-09-23 23:00:00 15.3 12 Sudoeste 25 Sudoeste 0 -- -- 89
2020-09-23 22:00:00 15.7 12 Sudoeste 19 Sudoeste 0 -- -- 89
2020-09-23 21:00:00 16.1 12 Sudoeste 23 Oeste 0 -- -- 87
2020-09-23 20:00:00 16.6 15 Oeste 27 Oeste 0 -- -- 85
2020-09-23 19:00:00 16.7 17 Oeste 32 Oeste 0 -- -- 88
2020-09-23 18:00:00 16.7 20 Oeste 43 Noroeste 0.2 -- -- 87
2020-09-23 17:00:00 19.3 23 Oeste 37 Oeste 0 -- -- 69
2020-09-23 16:00:00 19.3 18 Oeste 36 Oeste 0.6 -- -- 74
2020-09-23 15:00:00 19.1 19 Noroeste 32 Oeste 0 -- -- 71
2020-09-23 14:00:00 20.3 21 Oeste 36 Oeste 0 -- -- 63
2020-09-23 13:00:00 19.7 20 Oeste 39 Oeste 0 -- -- 63
2020-09-23 12:00:00 19 18 Oeste 31 Oeste 0 -- -- 66
2020-09-23 11:00:00 17.9 17 Oeste 31 Oeste 0.2 -- -- 75
2020-09-23 10:00:00 16.2 12 Sudoeste 22 Sudoeste 0 -- -- 85
2020-09-23 09:00:00 14.8 4 Sudoeste 11 Sudoeste 0.2 -- -- 93
2020-09-23 08:00:00 14.9 4 Sudoeste 12 Oeste 0 -- -- 91
2020-09-23 07:00:00 15 4 Oeste 9 Oeste 0 -- -- 88
2020-09-23 06:00:00 14.2 3 Sudoeste 10 Sur 0 -- -- 90
2020-09-23 05:00:00 14 8 Oeste 12 Sudoeste 0 -- -- 90
2020-09-23 04:00:00 13.4 5 Sudoeste 13 Sudoeste 0 -- -- 90
2020-09-23 03:00:00 14 4 Sur 9 Sur 0 -- -- 89
2020-09-23 02:00:00 15.2 4 Sur 17 Sudoeste 0 -- -- 85
2020-09-23 01:00:00 15.6 9 Sudoeste 18 Sudoeste 0 -- -- 83
2020-09-23 00:00:00 15.1 3 Sudoeste 9 Sudoeste 0 -- -- 81
2020-09-22 23:00:00 15.5 5 Sur 9 Sur 0 -- -- 76
2020-09-22 22:00:00 17.5 2 Oeste 9 Noroeste 0 -- -- 64
2020-09-22 21:00:00 19 9 Noroeste 19 Noroeste 0 -- -- 57
2020-09-22 20:00:00 20.2 12 Noroeste 25 Noroeste 0 -- -- 52
2020-09-22 19:00:00 21.5 13 Noroeste 28 Noroeste 0 -- -- 46
2020-09-22 18:00:00 22.2 19 Noroeste 33 Noroeste 0 -- -- 40
2020-09-22 17:00:00 22.4 11 Noroeste 28 Oeste 0 -- -- 42
2020-09-22 16:00:00 21.4 10 Oeste 27 Noroeste 0 -- -- 44
2020-09-22 15:00:00 20.7 11 Oeste 21 Oeste 0 -- -- 48
2020-09-22 14:00:00 20.2 8 Oeste 19 Oeste 0 -- -- 54
2020-09-22 13:00:00 18.7 5 Oeste 16 Oeste 0 -- -- 63
2020-09-22 12:00:00 17 7 Oeste 14 Oeste 0 -- -- 71
2020-09-22 11:00:00 15.5 8 Oeste 13 Sudoeste 0 -- -- 78
2020-09-22 10:00:00 12.8 4 Sudoeste 10 Sudoeste 0 -- -- 84
2020-09-22 09:00:00 10.4 5 Sur 10 Sur 0 -- -- 87
2020-09-22 08:00:00 9.9 7 Sur 10 Sur 0 -- -- 88
2020-09-22 07:00:00 10 5 Sur 10 Sur 0 -- -- 87
2020-09-22 06:00:00 10.9 8 Sur 13 Sur 0 -- -- 85
2020-09-22 05:00:00 12.2 5 Sur 12 Oeste 0 -- -- 82
2020-09-22 04:00:00 13 6 Oeste 9 Oeste 0 -- -- 81
2020-09-22 03:00:00 12.7 5 Sur 9 Sur 0 -- -- 82
2020-09-22 02:00:00 13.4 5 Sur 8 Sur 0 -- -- 77
2020-09-22 01:00:00 14.4 3 Sudoeste 6 Oeste 0 -- -- 70
2020-09-22 00:00:00 13.9 3 Sur 9 Oeste 0 -- -- 77
2020-09-21 23:00:00 14.7 3 Oeste 8 Sur 0 -- -- 72
2020-09-21 22:00:00 15.5 4 Sur 5 Sur 0 -- -- 71
2020-09-21 21:00:00 17.2 2 Oeste 9 Norte 0 -- -- 57
2020-09-21 20:00:00 19.4 6 Noroeste 14 Noroeste 0 -- -- 45
2020-09-21 19:00:00 20.9 9 Noroeste 17 Oeste 0 -- -- 44
2020-09-21 18:00:00 21.5 7 Oeste 18 Oeste 0 -- -- 40
2020-09-21 17:00:00 21.5 5 Oeste 20 Oeste 0 -- -- 42
2020-09-21 16:00:00 20.5 5 Norte 13 Noroeste 0 -- -- 49
2020-09-21 15:00:00 20.3 5 Noroeste 19 Noroeste 0 -- -- 57
2020-09-21 14:00:00 17.9 4 Norte 13 Norte 0 -- -- 66
2020-09-21 13:00:00 17.5 5 Sudoeste 12 Oeste 0.2 -- -- 70
2020-09-21 12:00:00 16.3 4 Sudoeste 14 Sudoeste 0 -- -- 77
2020-09-21 11:00:00 13.7 5 Sudoeste 11 Sudoeste 0 -- -- 89
2020-09-21 10:00:00 11.7 5 Sur 8 Sur 0 -- -- 94
2020-09-21 09:00:00 10.5 4 Sur 7 Sur 0 -- -- 95
2020-09-21 08:00:00 10.3 4 Sur 8 Sur 0 -- -- 95
2020-09-21 07:00:00 10.7 4 Sur 6 Sudoeste 0 -- -- 94
2020-09-21 06:00:00 10.9 3 Sur 9 Sudoeste 0 -- -- 94
2020-09-21 05:00:00 11.4 6 Sur 12 Sudoeste 0 -- -- 93
2020-09-21 04:00:00 12.1 6 Sur 14 Sudoeste 0 -- -- 91
2020-09-21 03:00:00 12.8 10 Oeste 14 Sudoeste 0 -- -- 89
2020-09-21 02:00:00 14 8 Oeste 12 Oeste 0 -- -- 88
2020-09-21 01:00:00 14.6 5 Oeste 14 Sudoeste 0 -- -- 93
2020-09-21 00:00:00 14.6 6 Sudoeste 14 Sudoeste 0 -- -- 94
2020-09-20 23:00:00 14.9 6 Oeste 10 Oeste 0 -- -- 92
2020-09-20 22:00:00 15 5 Sudoeste 10 Sudoeste 0 -- -- 92
2020-09-20 21:00:00 15.1 5 Oeste 15 Noroeste 2.2 -- -- 93
2020-09-20 20:00:00 15.2 13 Noroeste 28 Noroeste 1.6 -- -- 91
2020-09-20 19:00:00 19.2 17 Oeste 36 Oeste 0 -- -- 67
2020-09-20 18:00:00 19.2 22 Oeste 38 Oeste 0 -- -- 74
2020-09-20 17:00:00 18.5 17 Oeste 37 Oeste 0.8 -- -- 80
2020-09-20 16:00:00 19.1 19 Oeste 34 Oeste 0.2 -- -- 75
2020-09-20 15:00:00 17.4 16 Oeste 37 Oeste 3.4 -- -- 86
2020-09-20 14:00:00 18.6 14 Oeste 27 Oeste 0.2 -- -- 74
2020-09-20 13:00:00 17.5 17 Oeste 35 Noroeste 0 -- -- 77
2020-09-20 12:00:00 17.9 13 Oeste 25 Oeste 0 -- -- 78
2020-09-20 11:00:00 15.6 8 Oeste 21 Oeste 0.2 -- -- 92
2020-09-20 10:00:00 15.5 4 Sudoeste 8 Sudoeste 0 -- -- 89
2020-09-20 09:00:00 14.7 2 Sudeste 7 Sur 1.2 -- -- 93
2020-09-20 08:00:00 14.7 2 Sudeste 6 Sur 0 -- -- 92
2020-09-20 07:00:00 14.9 4 Sur 9 Oeste 0.2 -- -- 91
2020-09-20 06:00:00 14.8 3 Sur 8 Sur 0 -- -- 90
2020-09-20 05:00:00 14.8 3 Sur 9 Oeste 0 -- -- 91
2020-09-20 04:00:00 15 9 Sudoeste 19 Oeste 0 -- -- 89
2020-09-20 03:00:00 15.3 18 Oeste 28 Oeste 0 -- -- 86
2020-09-20 02:00:00 15.1 16 Oeste 24 Sudoeste 0 -- -- 87
2020-09-20 01:00:00 14.9 11 Sudoeste 20 Oeste 0 -- -- 89
2020-09-20 00:00:00 15.1 11 Sudoeste 16 Sudoeste 0 -- -- 86
2020-09-19 23:00:00 15 8 Sudoeste 18 Oeste 0 -- -- 87
2020-09-19 22:00:00 14.7 10 Oeste 31 Oeste 0 -- -- 88
2020-09-19 21:00:00 15.5 17 Oeste 32 Oeste 0 -- -- 80
2020-09-19 20:00:00 15.8 23 Oeste 40 Oeste 0 -- -- 74
2020-09-19 19:00:00 17.8 24 Oeste 42 Oeste 0 -- -- 62
2020-09-19 18:00:00 18.5 27 Oeste 44 Oeste 0 -- -- 64
2020-09-19 17:00:00 20.5 24 Oeste 40 Oeste 0 -- -- 55
2020-09-19 16:00:00 20.2 24 Oeste 44 Oeste 0 -- -- 55
2020-09-19 15:00:00 20 22 Oeste 40 Oeste 0 -- -- 61
2020-09-19 14:00:00 18.2 28 Oeste 46 Oeste 0 -- -- 66
2020-09-19 13:00:00 18.2 21 Oeste 44 Oeste 0 -- -- 72
2020-09-19 12:00:00 16.7 26 Oeste 54 Oeste 0 -- -- 76
2020-09-19 11:00:00 16.2 30 Oeste 45 Oeste 0 -- -- 79
2020-09-19 10:00:00 14.8 23 Sudoeste 38 Sudoeste 0 -- -- 87
2020-09-19 09:00:00 14.2 19 Sudoeste 38 Sudoeste 0 -- -- 87
2020-09-19 08:00:00 14.3 12 Sudoeste 29 Sudoeste 0 -- -- 85
2020-09-19 07:00:00 13.4 15 Sur 28 Sur 0.4 -- -- 91
2020-09-19 06:00:00 13.3 15 Sur 24 Sur 0.6 -- -- 91
2020-09-19 05:00:00 13.6 12 Sur 19 Sudeste 0.8 -- -- 90
2020-09-19 04:00:00 13.2 11 Sur 16 Sur 0.2 -- -- 92
2020-09-19 03:00:00 13 5 Sur 9 Sur 0 -- -- 95
2020-09-19 02:00:00 13 0 Calma 13 Sudeste 0 -- -- 94
2020-09-19 01:00:00 12.9 10 Sudeste 24 Sudeste 3.2 -- -- 93
2020-09-19 00:00:00 13.6 13 Sur 24 Sudeste 0.8 -- -- 88
2020-09-18 23:00:00 13.9 10 Sur 30 Sur 0 -- -- 86
2020-09-18 22:00:00 13.6 11 Sur 22 Sudeste 0 -- -- 84
2020-09-18 21:00:00 13.4 18 Sudeste 26 Sudeste 0 -- -- 84
2020-09-18 20:00:00 13 10 Sudeste 27 Sur 2.4 -- -- 92
2020-09-18 19:00:00 13.3 14 Sur 42 Sur 4.4 -- -- 86
2020-09-18 18:00:00 16.1 33 Sur 51 Sur 0.6 -- -- 80
2020-09-18 17:00:00 20.8 20 Sur 32 Sur 0 -- -- 47
2020-09-18 16:00:00 21.7 16 Sur 36 Sur 0 -- -- 46
2020-09-18 15:00:00 22.4 16 Sur 30 Sur 0 -- -- 43
2020-09-18 14:00:00 21.1 12 Sur 25 Sur 0 -- -- 49
2020-09-18 13:00:00 20.5 13 Sur 25 Sur 0 -- -- 55
2020-09-18 12:00:00 18.3 17 Sur 26 Sur 0 -- -- 71
2020-09-18 11:00:00 15.2 9 Sur 15 Sudeste 0 -- -- 89
2020-09-18 10:00:00 13.6 9 Sur 17 Sur 0.2 -- -- 95
2020-09-18 09:00:00 13.3 3 Sudoeste 13 Sur 1.6 -- -- 95
2020-09-18 08:00:00 13.2 5 Norte 21 Sudeste 5.2 -- -- 94
2020-09-18 07:00:00 13.6 12 Sudeste 22 Sudeste 0.2 -- -- 89
2020-09-18 06:00:00 13.8 8 Sudeste 17 Sudeste 2.6 -- -- 91
2020-09-18 05:00:00 14.4 7 Sudoeste 36 Sur 4.2 -- -- 89
2020-09-18 04:00:00 16.2 15 Sur 24 Sur 1.6 -- -- 90
2020-09-18 03:00:00 16.4 5 Sudeste 10 Sur 0 -- -- 87
2020-09-18 02:00:00 16.3 7 Sudeste 14 Sudeste 0 -- -- 88
2020-09-18 01:00:00 16.4 8 Sudeste 21 Sudeste 0 -- -- 85
2020-09-18 00:00:00 16 6 Sudeste 26 Sur 5 -- -- 89
2020-09-17 23:00:00 17.2 4 Sudeste 30 Sur 0.4 -- -- 84
2020-09-17 22:00:00 17.7 22 Sur 48 Sur 4.8 -- -- 75
2020-09-17 21:00:00 22 14 Sudeste 27 Sur 0 -- -- 58
2020-09-17 20:00:00 22.8 13 Sur 28 Sur 0 -- -- 56
2020-09-17 19:00:00 23.5 22 Sur 36 Sur 0 -- -- 53
2020-09-17 18:00:00 24.2 19 Sur 43 Sur 0 -- -- 51
2020-09-17 17:00:00 25.6 23 Sur 41 Sur 0 -- -- 47
2020-09-17 16:00:00 25.1 26 Sur 42 Sur 0 -- -- 45
2020-09-17 15:00:00 25.1 24 Sur 45 Sur 0 -- -- 43
2020-09-17 14:00:00 24.2 24 Sur 48 Sur 0 -- -- 46
2020-09-17 13:00:00 23.3 27 Sur 43 Sur 0 -- -- 53
2020-09-17 12:00:00 21.9 26 Sur 39 Sudeste 0 -- -- 58
2020-09-17 11:00:00 20 18 Sur 26 Sur 0 -- -- 63
2020-09-17 10:00:00 19.2 14 Sur 26 Sudeste 0 -- -- 66
2020-09-17 09:00:00 17.9 17 Sur 27 Sur 0 -- -- 71
2020-09-17 08:00:00 18.2 13 Sur 33 Sur 0 -- -- 70
2020-09-17 07:00:00 18.7 8 Sudeste 16 Sudeste 0 -- -- 65
2020-09-17 06:00:00 19.1 12 Sur 27 Sur 0 -- -- 62
2020-09-17 05:00:00 19.1 15 Sur 26 Sur 0 -- -- 62
2020-09-17 04:00:00 17.8 5 Sur 12 Sudeste 0 -- -- 76
2020-09-17 03:00:00 18.1 9 Sudeste 15 Este 0 -- -- 70
2020-09-17 02:00:00 17.9 4 Sudoeste 23 Sur 0 -- -- 73
2020-09-17 01:00:00 19.8 21 Sudoeste 38 Sur 0 -- -- 62
2020-09-17 00:00:00 24.3 14 Sudoeste 49 Sur 0 -- -- 34
2020-09-16 23:00:00 22.1 19 Sur 42 Sur 0 -- -- 47
2020-09-16 22:00:00 23.2 2 Sudoeste 7 Este 0 -- -- 44
2020-09-16 21:00:00 25.2 4 Sudeste 12 Sur 0 -- -- 35
2020-09-16 20:00:00 26.6 9 Sur 21 Sur 0 -- -- 31
2020-09-16 19:00:00 27.7 13 Sur 30 Sudeste 0 -- -- 26
2020-09-16 18:00:00 28.6 9 Sur 26 Sur 0 -- -- 27
2020-09-16 17:00:00 28.8 11 Sudeste 24 Sudeste 0 -- -- 27
2020-09-16 16:00:00 28.5 6 Sudeste 15 Sudeste 0 -- -- 33
2020-09-16 15:00:00 27.9 8 Sudeste 18 Sudeste 0 -- -- 36
2020-09-16 14:00:00 27.3 7 Sudeste 17 Este 0 -- -- 37
2020-09-16 13:00:00 26 4 Este 14 Este 0 -- -- 41
2020-09-16 12:00:00 24.1 9 Este 15 Este 0 -- -- 44
2020-09-16 11:00:00 20.6 3 Sudeste 8 Sur 0 -- -- 58
2020-09-16 10:00:00 15.5 4 Sur 9 Sur 0 -- -- 77
2020-09-16 09:00:00 12.4 5 Sur 10 Sur 0 -- -- 84
2020-09-16 08:00:00 11.9 5 Sur 10 Sur 0 -- -- 85
2020-09-16 07:00:00 12.2 4 Sudoeste 7 Sudoeste 0 -- -- 85
2020-09-16 06:00:00 13.1 2 Sudoeste 9 Sur 0 -- -- 81
2020-09-16 05:00:00 13.9 3 Sudoeste 6 Sudoeste 0 -- -- 80
2020-09-16 04:00:00 13.8 5 Sudoeste 9 Sudoeste 0 -- -- 81
2020-09-16 03:00:00 14.3 6 Sudoeste 11 Sur 0 -- -- 78
2020-09-16 02:00:00 15.3 7 Sur 10 Sur 0 -- -- 78
2020-09-16 01:00:00 17.2 6 Sur 8 Sur 0 -- -- 72
2020-09-16 00:00:00 17.9 4 Sur 10 Sur 0 -- -- 72
2020-09-15 23:00:00 19.3 5 Sur 8 Sur 0 -- -- 68
2020-09-15 22:00:00 21.4 3 Oeste 9 Oeste 0 -- -- 59
2020-09-15 21:00:00 23.1 3 Noroeste 7 Noroeste 0 -- -- 56
2020-09-15 20:00:00 25.3 5 Noroeste 14 Noroeste 0 -- -- 45
2020-09-15 19:00:00 26.4 8 Noroeste 18 Noroeste 0 -- -- 42
2020-09-15 18:00:00 27.2 10 Noroeste 29 Oeste 0 -- -- 42
2020-09-15 17:00:00 27.7 6 Noroeste 25 Sudeste 0 -- -- 39
2020-09-15 16:00:00 27.3 8 Oeste 14 Sudoeste 0 -- -- 40
2020-09-15 15:00:00 25.9 4 Oeste 14 Sur 0 -- -- 45
2020-09-15 14:00:00 25.2 6 Noroeste 17 Oeste 0.2 -- -- 51
2020-09-15 13:00:00 23.8 5 Noroeste 15 Sudoeste 0 -- -- 55
2020-09-15 12:00:00 22.1 6 Sudoeste 12 Sur 0 -- -- 66
2020-09-15 11:00:00 19.8 5 Sudoeste 12 Sudoeste 0 -- -- 79
2020-09-15 10:00:00 17.5 6 Sudoeste 13 Sur 0 -- -- 85
2020-09-15 09:00:00 14.2 4 Sudoeste 10 Sur 0 -- -- 93
2020-09-15 08:00:00 13.5 4 Sur 9 Sudeste 0 -- -- 94
2020-09-15 07:00:00 13.8 5 Sur 11 Sudoeste 0 -- -- 93
2020-09-15 06:00:00 14.4 6 Sur 9 Sur 0 -- -- 95
2020-09-15 05:00:00 14.4 4 Sudoeste 10 Sur 0 -- -- 94
2020-09-15 04:00:00 14.7 7 Sur 12 Sur 0 -- -- 93
2020-09-15 03:00:00 15.1 7 Sur 12 Sur 0 -- -- 92
2020-09-15 02:00:00 15.6 4 Nordeste 46 Oeste 7.6 -- -- 91
2020-09-15 01:00:00 16.8 7 Noroeste 21 Oeste 0 -- -- 83
2020-09-15 00:00:00 16.7 6 Este 17 Sudeste 0 -- -- 78
2020-09-14 23:00:00 15.9 14 Noroeste 82 Oeste 6.2 -- -- 79
2020-09-14 22:00:00 22.8 5 Oeste 9 Oeste 0 -- -- 42
2020-09-14 21:00:00 24.7 8 Sur 24 Sur 0 -- -- 39
2020-09-14 20:00:00 27 11 Sur 33 Sur 0 -- -- 35
2020-09-14 19:00:00 27.8 21 Sur 40 Sur 0 -- -- 33
2020-09-14 18:00:00 28.5 19 Sur 33 Sur 0 -- -- 34
2020-09-14 17:00:00 29.9 20 Sur 36 Sur 0 -- -- 31
2020-09-14 16:00:00 28.1 21 Sudeste 35 Sudeste 0 -- -- 34
2020-09-14 15:00:00 26.9 22 Sur 36 Sudeste 0 -- -- 36
2020-09-14 14:00:00 25 18 Sur 28 Sur 0 -- -- 41
2020-09-14 13:00:00 22.6 15 Sur 31 Sur 0 -- -- 50
2020-09-14 12:00:00 22.7 17 Sur 31 Sudoeste 0 -- -- 47
2020-09-14 11:00:00 22.3 21 Sur 34 Sur 0 -- -- 49
2020-09-14 10:00:00 21.8 19 Sur 35 Sur 0 -- -- 49
2020-09-14 09:00:00 21.3 13 Sur 32 Sur 0 -- -- 50
2020-09-14 08:00:00 20.4 16 Sur 27 Sur 0 -- -- 51
2020-09-14 07:00:00 20.1 12 Sur 33 Sur 0 -- -- 53
2020-09-14 06:00:00 21.5 19 Sur 33 Sudeste 0 -- -- 48
2020-09-14 05:00:00 22.2 19 Sur 36 Sur 0 -- -- 45
2020-09-14 04:00:00 22.5 18 Sur 31 Sur 0 -- -- 45
2020-09-14 03:00:00 23.3 19 Sur 42 Sur 0 -- -- 42
2020-09-14 02:00:00 23.4 17 Sur 31 Sur 0 -- -- 39
2020-09-14 01:00:00 19.7 6 Sur 10 Sur 0 -- -- 44
2020-09-14 00:00:00 21 7 Sur 9 Sur 0 -- -- 41
2020-09-13 23:00:00 23.1 4 Sur 10 Sudeste 0 -- -- 36
2020-09-13 22:00:00 25 7 Sudeste 17 Sur 0 -- -- 33
2020-09-13 21:00:00 27 13 Sur 24 Sur 0 -- -- 30
2020-09-13 20:00:00 28.8 19 Sur 29 Sur 0 -- -- 28
2020-09-13 19:00:00 30.5 19 Sur 31 Sur 0 -- -- 26
2020-09-13 18:00:00 30.6 17 Sur 32 Sur 0 -- -- 26
2020-09-13 17:00:00 31.5 19 Sur 32 Sur 0 -- -- 25
2020-09-13 16:00:00 32.3 13 Sur 26 Sudeste 0 -- -- 24
2020-09-13 15:00:00 31.7 9 Sudeste 27 Sudeste 0 -- -- 23
2020-09-13 14:00:00 30.5 10 Sur 19 Sur 0 -- -- 27
2020-09-13 13:00:00 29.5 11 Sur 21 Sur 0 -- -- 29
2020-09-13 12:00:00 28 10 Sudoeste 24 Sur 0 -- -- 33
2020-09-13 11:00:00 26.4 16 Sur 26 Sur 0 -- -- 36
2020-09-13 10:00:00 23.6 12 Sur 20 Sur 0 -- -- 43
2020-09-13 09:00:00 17.8 5 Sur 12 Sur 0 -- -- 53
2020-09-13 08:00:00 14.5 4 Sudoeste 9 Sur 0 -- -- 56
2020-09-13 07:00:00 14.5 6 Sur 10 Sudoeste 0 -- -- 54
2020-09-13 06:00:00 15.1 7 Sur 12 Sur 0 -- -- 49
2020-09-13 05:00:00 13.8 6 Sur 12 Sur 0 -- -- 52
2020-09-13 04:00:00 14.8 4 Sur 8 Sudeste 0 -- -- 44
2020-09-13 03:00:00 16.1 0 Calma 6 Sur 0 -- -- 42
2020-09-13 02:00:00 17.5 2 Sur 8 Nordeste 0 -- -- 35
2020-09-13 01:00:00 20.1 2 Este 12 Este 0 -- -- 29
2020-09-13 00:00:00 20.9 4 Nordeste 14 Nordeste 0 -- -- 27
2020-09-12 23:00:00 20.8 3 Este 8 Sudeste 0 -- -- 26
2020-09-12 22:00:00 23.8 4 Este 12 Nordeste 0 -- -- 24
2020-09-12 21:00:00 26.1 6 Nordeste 13 Nordeste 0 -- -- 23
2020-09-12 20:00:00 29.3 7 Nordeste 12 Norte 0 -- -- 20
2020-09-12 19:00:00 30.5 4 Nordeste 15 Norte 0 -- -- 20
2020-09-12 18:00:00 31.9 7 Sur 15 Sudeste 0 -- -- 18
2020-09-12 17:00:00 31.4 5 Este 18 Sudeste 0 -- -- 19
2020-09-12 16:00:00 31.1 7 Nordeste 19 Sudeste 0 -- -- 19
2020-09-12 15:00:00 30.7 9 Nordeste 22 Norte 0 -- -- 20
2020-09-12 14:00:00 30.2 8 Este 23 Este 0 -- -- 19
2020-09-12 13:00:00 28.6 13 Este 27 Este 0 -- -- 21
2020-09-12 12:00:00 26.4 12 Nordeste 18 Nordeste 0 -- -- 28
2020-09-12 11:00:00 21.9 4 Este 8 Este 0 -- -- 35
2020-09-12 10:00:00 17.3 3 Este 7 Sur 0 -- -- 45
2020-09-12 09:00:00 12.7 2 Sur 5 Sudoeste 0 -- -- 56
2020-09-12 08:00:00 10.6 2 Sur 6 Sur 0 -- -- 65
2020-09-12 07:00:00 11.3 3 Sur 7 Sur 0 -- -- 62
2020-09-12 06:00:00 12 3 Sur 8 Sur 0 -- -- 63
2020-09-12 05:00:00 13.2 0 Calma 6 Sur 0 -- -- 58
2020-09-12 04:00:00 14.3 5 Sur 9 Sur 0 -- -- 58
2020-09-12 03:00:00 15.6 4 Sudoeste 8 Sur 0 -- -- 46
2020-09-12 02:00:00 17.2 2 Oeste 4 Oeste 0 -- -- 39
2020-09-12 01:00:00 19.1 2 Sudoeste 10 Sudeste 0 -- -- 36
2020-09-12 00:00:00 20.3 7 Este 13 Sudeste 0 -- -- 34
2020-09-11 23:00:00 21.8 6 Nordeste 13 Nordeste 0 -- -- 33
2020-09-11 22:00:00 23.1 6 Nordeste 11 Nordeste 0 -- -- 34
2020-09-11 21:00:00 25.7 5 Norte 12 Nordeste 0 -- -- 29
2020-09-11 20:00:00 27.7 8 Norte 20 Noroeste 0 -- -- 26
2020-09-11 19:00:00 29.3 8 Noroeste 21 Noroeste 0 -- -- 25
2020-09-11 18:00:00 30 11 Norte 18 Norte 0 -- -- 24
2020-09-11 17:00:00 29.8 6 Nordeste 21 Noroeste 0 -- -- 24
2020-09-11 16:00:00 29.4 6 Sudeste 23 Nordeste 0 -- -- 25
2020-09-11 15:00:00 28.9 6 Nordeste 18 Este 0 -- -- 26
2020-09-11 14:00:00 27.9 6 Norte 19 Nordeste 0 -- -- 28
2020-09-11 13:00:00 26.8 6 Este 13 Este 0 -- -- 29
2020-09-11 12:00:00 25.2 7 Este 12 Nordeste 0 -- -- 31
2020-09-11 11:00:00 22.1 3 Sudeste 6 Sudeste 0 -- -- 38
2020-09-11 10:00:00 17.8 2 Sudeste 4 Sur 0 -- -- 46
2020-09-11 09:00:00 12.8 0 Calma 3 Sudoeste 0 -- -- 60
2020-09-11 08:00:00 10.1 2 Sudoeste 4 Sudoeste 0 -- -- 70
2020-09-11 07:00:00 10.7 2 Sudoeste 4 Sudoeste 0 -- -- 69
2020-09-11 06:00:00 11.2 0 Calma 5 Sur 0 -- -- 63
2020-09-11 05:00:00 11.9 3 Sur 9 Sudoeste 0 -- -- 61
2020-09-11 04:00:00 12.6 4 Sur 6 Sur 0 -- -- 58
2020-09-11 03:00:00 13.9 6 Sur 9 Sur 0 -- -- 54
2020-09-11 02:00:00 14.4 6 Sur 8 Sur 0 -- -- 60
2020-09-11 01:00:00 15.4 4 Sudoeste 8 Este 0 -- -- 56
2020-09-11 00:00:00 17.6 0 Calma 7 Sudeste 0 -- -- 44
2020-09-10 23:00:00 19.5 2 Sudeste 6 Este 0 -- -- 38
2020-09-10 22:00:00 22.3 3 Norte 11 Norte 0 -- -- 33
2020-09-10 21:00:00 24.6 5 Norte 10 Nordeste 0 -- -- 30
2020-09-10 20:00:00 27.3 5 Nordeste 14 Noroeste 0 -- -- 27
2020-09-10 19:00:00 28.3 9 Norte 18 Sudeste 0 -- -- 25
2020-09-10 18:00:00 28.5 9 Nordeste 23 Este 0 -- -- 25
2020-09-10 17:00:00 28.8 10 Este 23 Nordeste 0 -- -- 25
2020-09-10 16:00:00 28 8 Nordeste 23 Norte 0 -- -- 25
2020-09-10 15:00:00 27.7 6 Nordeste 20 Nordeste 0 -- -- 29
2020-09-10 14:00:00 26.2 10 Nordeste 22 Nordeste 0 -- -- 32
2020-09-10 13:00:00 24.4 8 Nordeste 17 Norte 0 -- -- 39
2020-09-10 12:00:00 22.3 8 Norte 15 Norte 0 -- -- 43
2020-09-10 11:00:00 19.3 5 Norte 10 Norte 0 -- -- 48
2020-09-10 10:00:00 15.8 8 Norte 11 Norte 0 -- -- 57
2020-09-10 09:00:00 11 0 Calma 7 Sudoeste 0 -- -- 61
2020-09-10 08:00:00 9 5 Sur 9 Sur 0 -- -- 63
2020-09-10 07:00:00 9.1 6 Sur 8 Sur 0 -- -- 67
2020-09-10 06:00:00 10.2 0 Calma 5 Sudoeste 0 -- -- 62
2020-09-10 05:00:00 10.4 4 Sur 12 Sur 0 -- -- 64
2020-09-10 04:00:00 12.4 0 Calma 4 Oeste 0 -- -- 61
2020-09-10 03:00:00 13.6 3 Oeste 8 Sur 0 -- -- 60
2020-09-10 02:00:00 15.7 0 Calma 5 Noroeste 0 -- -- 48
2020-09-10 01:00:00 18 4 Nordeste 8 Nordeste 0 -- -- 44
2020-09-10 00:00:00 18.1 4 Nordeste 10 Norte 0 -- -- 39
2020-09-09 23:00:00 18.9 0 Calma 4 Nordeste 0 -- -- 36
2020-09-09 22:00:00 21.5 2 Norte 9 Noroeste 0 -- -- 32
2020-09-09 21:00:00 24.1 6 Noroeste 16 Noroeste 0 -- -- 28
2020-09-09 20:00:00 26.4 12 Noroeste 20 Noroeste 0 -- -- 26
2020-09-09 19:00:00 27.6 15 Noroeste 22 Norte 0 -- -- 24
2020-09-09 18:00:00 28.1 11 Norte 23 Nordeste 0 -- -- 24
2020-09-09 17:00:00 28.1 9 Noroeste 25 Noroeste 0 -- -- 25
2020-09-09 16:00:00 27.8 7 Norte 15 Noroeste 0 -- -- 26
2020-09-09 15:00:00 27.7 6 Nordeste 14 Sur 0 -- -- 24
2020-09-09 14:00:00 26.7 8 Nordeste 17 Sudeste 0 -- -- 25
2020-09-09 13:00:00 26.3 4 Oeste 16 Sudoeste 0 -- -- 26
2020-09-09 12:00:00 25.1 8 Sudeste 16 Sur 0 -- -- 30
2020-09-09 11:00:00 22.7 8 Sur 19 Sur 0 -- -- 38
2020-09-09 10:00:00 18.1 9 Sur 18 Sur 0 -- -- 51
2020-09-09 09:00:00 13.2 6 Sudeste 10 Sur 0 -- -- 62
2020-09-09 08:00:00 9.8 2 Sudoeste 8 Sur 0 -- -- 65
2020-09-09 07:00:00 9.5 4 Sudoeste 11 Sur 0 -- -- 66
2020-09-09 06:00:00 9.8 4 Sur 7 Oeste 0 -- -- 64
2020-09-09 05:00:00 10.5 2 Sur 11 Sur 0 -- -- 62
2020-09-09 04:00:00 11.2 7 Sur 9 Sur 0 -- -- 58
2020-09-09 03:00:00 12.5 0 Calma 12 Sudeste 0 -- -- 53
2020-09-09 02:00:00 12.8 7 Sudeste 11 Sudeste 0 -- -- 48
2020-09-09 01:00:00 14 3 Sur 8 Sudoeste 0 -- -- 50
2020-09-09 00:00:00 15.9 4 Sudoeste 9 Sur 0 -- -- 41
2020-09-08 23:00:00 17.6 5 Sur 15 Sur 0 -- -- 38
2020-09-08 22:00:00 19.1 9 Sur 14 Sur 0 -- -- 35
2020-09-08 21:00:00 21.2 9 Sur 17 Sudoeste 0 -- -- 32
2020-09-08 20:00:00 25.4 9 Sudoeste 17 Sudoeste 0 -- -- 26
2020-09-08 19:00:00 26.8 5 Sur 26 Sudoeste 0 -- -- 24
2020-09-08 18:00:00 27.3 6 Sudeste 19 Sudeste 0 -- -- 20
2020-09-08 17:00:00 26.8 7 Nordeste 32 Sudeste 0 -- -- 21
2020-09-08 16:00:00 25.4 10 Nordeste 26 Norte 0 -- -- 22
2020-09-08 15:00:00 24 6 Nordeste 18 Este 0 -- -- 27
2020-09-08 14:00:00 22.8 6 Este 20 Nordeste 0 -- -- 31
2020-09-08 13:00:00 20.4 6 Nordeste 15 Sudeste 0 -- -- 36
2020-09-08 12:00:00 17.4 6 Nordeste 13 Nordeste 0 -- -- 41
2020-09-08 11:00:00 13.8 4 Nordeste 9 Este 0 -- -- 52
2020-09-08 10:00:00 10.9 5 Sudeste 8 Este 0 -- -- 61
2020-09-08 09:00:00 8.1 0 Calma 9 Nordeste 0 -- -- 73
2020-09-08 08:00:00 5.4 4 Nordeste 6 Nordeste 0 -- -- 77
2020-09-08 07:00:00 5.9 0 Calma 3 Sudoeste 0 -- -- 76
2020-09-08 06:00:00 6.9 2 Sudeste 8 Norte 0 -- -- 73
2020-09-08 05:00:00 7.9 3 Noroeste 8 Oeste 0 -- -- 71
2020-09-08 04:00:00 9.2 0 Calma 6 Este 0 -- -- 67
2020-09-08 03:00:00 10.6 2 Este 15 Nordeste 0 -- -- 63
2020-09-08 02:00:00 11.6 9 Nordeste 19 Nordeste 0 -- -- 59
2020-09-08 01:00:00 12.5 6 Norte 18 Nordeste 0 -- -- 54
2020-09-08 00:00:00 13.7 7 Nordeste 23 Nordeste 0 -- -- 49
2020-09-07 23:00:00 14.9 10 Nordeste 20 Nordeste 0 -- -- 48
2020-09-07 22:00:00 16.8 10 Nordeste 19 Nordeste 0 -- -- 44
2020-09-07 21:00:00 18.9 12 Nordeste 24 Nordeste 0 -- -- 37
2020-09-07 20:00:00 21.3 13 Nordeste 27 Nordeste 0 -- -- 33
2020-09-07 19:00:00 22.8 15 Nordeste 27 Nordeste 0 -- -- 31
2020-09-07 18:00:00 23.7 14 Nordeste 27 Nordeste 0 -- -- 30
2020-09-07 17:00:00 23.8 13 Nordeste 25 Nordeste 0 -- -- 29
2020-09-07 16:00:00 22.5 13 Nordeste 31 Nordeste 0 -- -- 32
2020-09-07 15:00:00 21.7 14 Nordeste 30 Norte 0 -- -- 34
2020-09-07 14:00:00 20.5 13 Nordeste 27 Este 0 -- -- 39
2020-09-07 13:00:00 19.1 9 Nordeste 27 Este 0 -- -- 42
2020-09-07 12:00:00 17.5 13 Nordeste 27 Nordeste 0 -- -- 46
2020-09-07 11:00:00 16 15 Nordeste 27 Nordeste 0 -- -- 53
2020-09-07 10:00:00 13.6 11 Este 21 Este 0 -- -- 64
2020-09-07 09:00:00 11.9 4 Nordeste 8 Este 0 -- -- 70
2020-09-07 08:00:00 9.6 3 Norte 7 Norte 0 -- -- 77
2020-09-07 07:00:00 10.7 3 Norte 9 Norte 0 -- -- 72
2020-09-07 06:00:00 10.8 3 Norte 9 Norte 0 -- -- 73
2020-09-07 05:00:00 11.7 4 Norte 9 Nordeste 0 -- -- 72
2020-09-07 04:00:00 12.3 6 Nordeste 21 Nordeste 0 -- -- 70
2020-09-07 03:00:00 13.2 9 Nordeste 24 Norte 0 -- -- 65
2020-09-07 02:00:00 14 12 Norte 23 Norte 0 -- -- 60
2020-09-07 01:00:00 14.3 9 Nordeste 20 Nordeste 0 -- -- 60
2020-09-07 00:00:00 15.2 8 Nordeste 18 Nordeste 0 -- -- 57
2020-09-06 23:00:00 16.6 11 Nordeste 23 Este 0 -- -- 51
2020-09-06 22:00:00 19.1 14 Nordeste 26 Nordeste 0 -- -- 45
2020-09-06 21:00:00 22.1 10 Nordeste 30 Nordeste 0 -- -- 43
2020-09-06 20:00:00 25.2 15 Norte 28 Nordeste 0 -- -- 38
2020-09-06 19:00:00 27.9 15 Nordeste 28 Norte 0 -- -- 33
2020-09-06 18:00:00 29.4 15 Norte 28 Noroeste 0 -- -- 30
2020-09-06 17:00:00 29.5 13 Noroeste 27 Norte 0 -- -- 32
2020-09-06 16:00:00 28.9 12 Norte 28 Noroeste 0 -- -- 32
2020-09-06 15:00:00 27.7 8 Norte 20 Norte 0 -- -- 36
2020-09-06 14:00:00 26.4 7 Este 15 Sudeste 0 -- -- 40
2020-09-06 13:00:00 23.2 10 Nordeste 17 Nordeste 0 -- -- 49
2020-09-06 12:00:00 21 9 Nordeste 17 Este 0 -- -- 56
2020-09-06 11:00:00 18.5 4 Nordeste 12 Este 0 -- -- 64
2020-09-06 10:00:00 15.9 8 Nordeste 12 Nordeste 0 -- -- 72
2020-09-06 09:00:00 13.4 2 Norte 6 Norte 0 -- -- 82
2020-09-06 08:00:00 12.7 3 Norte 8 Norte 0 -- -- 84
2020-09-06 07:00:00 12.7 4 Norte 8 Norte 0 -- -- 84
2020-09-06 06:00:00 13.4 5 Nordeste 12 Norte 0 -- -- 80
2020-09-06 05:00:00 14.3 6 Norte 10 Norte 0 -- -- 77
2020-09-06 04:00:00 15.1 0 Calma 9 Norte 0 -- -- 73
2020-09-06 03:00:00 16.1 5 Nordeste 9 Nordeste 0 -- -- 70
2020-09-06 02:00:00 17.1 5 Norte 14 Norte 0 -- -- 67
2020-09-06 01:00:00 18.3 9 Nordeste 17 Norte 0 -- -- 62
2020-09-06 00:00:00 20 12 Nordeste 18 Nordeste 0 -- -- 56
2020-09-05 23:00:00 21.7 8 Nordeste 24 Nordeste 0 -- -- 50
2020-09-05 22:00:00 23.9 16 Nordeste 30 Nordeste 0 -- -- 44
2020-09-05 21:00:00 26.8 13 Nordeste 32 Nordeste 0 -- -- 34
2020-09-05 20:00:00 30.6 15 Norte 31 Norte 0 -- -- 26
2020-09-05 19:00:00 32.1 5 Nordeste 17 Nordeste 0 -- -- 20
2020-09-05 18:00:00 32.7 4 Nordeste 19 Nordeste 0 -- -- 21
2020-09-05 17:00:00 32.4 10 Norte 18 Norte 0 -- -- 22
2020-09-05 16:00:00 32.2 7 Este 22 Oeste 0 -- -- 22
2020-09-05 15:00:00 31.7 6 Norte 14 Sudeste 0 -- -- 22
2020-09-05 14:00:00 30.7 5 Sudeste 11 Este 0 -- -- 26
2020-09-05 13:00:00 28.7 4 Sudoeste 10 Sudoeste 0 -- -- 28
2020-09-05 12:00:00 26.1 5 Sudoeste 10 Sudoeste 0 -- -- 34
2020-09-05 11:00:00 23.3 3 Sudoeste 10 Oeste 0 -- -- 40
2020-09-05 10:00:00 20.1 5 Sudoeste 9 Sur 0 -- -- 46
2020-09-05 09:00:00 15.8 4 Sur 9 Sur 0 -- -- 56
2020-09-05 08:00:00 13.8 3 Sur 7 Sudoeste 0 -- -- 63
2020-09-05 07:00:00 14.6 6 Sur 10 Sur 0 -- -- 60
2020-09-05 06:00:00 15.3 6 Sudoeste 15 Sur 0 -- -- 56
2020-09-05 05:00:00 16.2 10 Sur 15 Sur 0 -- -- 53
2020-09-05 04:00:00 16.1 4 Sudoeste 15 Sudoeste 0 -- -- 55
2020-09-05 03:00:00 17.3 9 Sur 12 Sur 0 -- -- 49
2020-09-05 02:00:00 17.5 2 Sur 12 Sur 0 -- -- 50
2020-09-05 01:00:00 18.9 4 Sur 10 Sur 0 -- -- 47
2020-09-05 00:00:00 21.2 4 Sur 11 Sur 0 -- -- 40
2020-09-04 23:00:00 23.9 4 Sudeste 9 Sudeste 0 -- -- 33
2020-09-04 22:00:00 25.5 3 Sudoeste 11 Sudeste 0 -- -- 30
2020-09-04 21:00:00 28.4 4 Norte 11 Norte 0 -- -- 23
2020-09-04 20:00:00 31.1 8 Norte 15 Noroeste 0 -- -- 20
2020-09-04 19:00:00 32.2 6 Nordeste 16 Sudeste 0 -- -- 21
2020-09-04 18:00:00 33.3 6 Noroeste 19 Oeste 0 -- -- 20
2020-09-04 17:00:00 33 10 Oeste 27 Sudoeste 0 -- -- 20
2020-09-04 16:00:00 32.9 9 Oeste 18 Oeste 0 -- -- 21
2020-09-04 15:00:00 32.2 8 Sudoeste 20 Sur 0 -- -- 21
2020-09-04 14:00:00 31.7 6 Sur 19 Sudeste 0 -- -- 22
2020-09-04 13:00:00 30.7 5 Oeste 17 Sudoeste 0 -- -- 23
2020-09-04 12:00:00 29.1 9 Sur 18 Sur 0 -- -- 25
2020-09-04 11:00:00 26.3 11 Sur 20 Sur 0 -- -- 36
2020-09-04 10:00:00 22.5 10 Sur 16 Sur 0 -- -- 44
2020-09-04 09:00:00 16.1 6 Sur 11 Sur 0 -- -- 52
2020-09-04 08:00:00 12.5 7 Sur 12 Sur 0 -- -- 57
2020-09-04 07:00:00 13.1 8 Sur 10 Sur 0 -- -- 53
2020-09-04 06:00:00 13.3 7 Sur 10 Sur 0 -- -- 53
2020-09-04 05:00:00 13.8 6 Sur 10 Sur 0 -- -- 50
2020-09-04 04:00:00 14.1 4 Sudoeste 10 Sudoeste 0 -- -- 50
2020-09-04 03:00:00 14.5 6 Sur 11 Sur 0 -- -- 47
2020-09-04 02:00:00 15.6 8 Sur 11 Sur 0 -- -- 44
2020-09-04 01:00:00 16.7 6 Sur 10 Sur 0 -- -- 44
2020-09-04 00:00:00 17.4 2 Sudoeste 15 Sur 0 -- -- 41
2020-09-03 23:00:00 20 3 Sur 5 Sur 0 -- -- 37
2020-09-03 22:00:00 22.9 0 Calma 9 Noroeste 0 -- -- 27
2020-09-03 21:00:00 26.7 5 Norte 12 Norte 0 -- -- 22
2020-09-03 20:00:00 29.6 5 Norte 14 Norte 0 -- -- 20
2020-09-03 19:00:00 30.3 9 Norte 16 Noroeste 0 -- -- 19
2020-09-03 18:00:00 30.7 6 Nordeste 13 Nordeste 0 -- -- 19
2020-09-03 17:00:00 31.1 4 Noroeste 16 Norte 0 -- -- 20
2020-09-03 16:00:00 30.1 4 Nordeste 16 Este 0 -- -- 22
2020-09-03 15:00:00 28.9 7 Este 17 Norte 0 -- -- 24
2020-09-03 14:00:00 27.5 7 Norte 23 Noroeste 0 -- -- 27
2020-09-03 13:00:00 26.5 8 Nordeste 16 Nordeste 0 -- -- 30
2020-09-03 12:00:00 25 8 Nordeste 17 Este 0 -- -- 31
2020-09-03 11:00:00 22.2 5 Sudeste 8 Sur 0 -- -- 35
2020-09-03 10:00:00 16.6 2 Sur 10 Sur 0 -- -- 48
2020-09-03 09:00:00 11.8 6 Sur 9 Sur 0 -- -- 58
2020-09-03 08:00:00 8.9 3 Sur 8 Sur 0 -- -- 66
2020-09-03 07:00:00 8.8 6 Sur 10 Sur 0 -- -- 68
2020-09-03 06:00:00 9.4 3 Sudoeste 9 Sur 0 -- -- 65
2020-09-03 05:00:00 10.8 5 Sur 9 Sur 0 -- -- 59
2020-09-03 04:00:00 11.6 4 Sur 8 Sur 0 -- -- 57
2020-09-03 03:00:00 12.5 4 Sur 7 Sur 0 -- -- 60
2020-09-03 02:00:00 14.5 2 Sudoeste 4 Noroeste 0 -- -- 49
2020-09-03 01:00:00 17.1 2 Este 10 Este 0 -- -- 44
2020-09-03 00:00:00 17.9 4 Este 8 Este 0 -- -- 40
2020-09-02 23:00:00 18.3 2 Norte 5 Norte 0 -- -- 38
2020-09-02 22:00:00 21.4 2 Norte 10 Norte 0 -- -- 32
2020-09-02 21:00:00 24.1 6 Norte 16 Noroeste 0 -- -- 29
2020-09-02 20:00:00 26.1 10 Norte 21 Norte 0 -- -- 27
2020-09-02 19:00:00 26.9 10 Noroeste 23 Oeste 0 -- -- 25
2020-09-02 18:00:00 27.4 11 Noroeste 26 Norte 0 -- -- 25
2020-09-02 17:00:00 27.8 9 Norte 21 Norte 0 -- -- 24
2020-09-02 16:00:00 26.4 6 Sudeste 23 Este 0 -- -- 25
2020-09-02 15:00:00 26.1 10 Sudeste 21 Este 0 -- -- 26
2020-09-02 14:00:00 25.2 8 Este 20 Nordeste 0 -- -- 28
2020-09-02 13:00:00 23.2 9 Este 20 Este 0 -- -- 32
2020-09-02 12:00:00 21.4 9 Este 18 Nordeste 0 -- -- 34
2020-09-02 11:00:00 16.5 6 Este 11 Este 0 -- -- 50
2020-09-02 10:00:00 13.8 2 Sur 5 Sur 0 -- -- 60
2020-09-02 09:00:00 9.9 4 Sudeste 8 Sur 0 -- -- 71
2020-09-02 08:00:00 7.9 2 Sur 4 Sudoeste 0 -- -- 80
2020-09-02 07:00:00 9.5 0 Calma 4 Norte 0 -- -- 69
2020-09-02 06:00:00 9.9 3 Norte 6 Oeste 0 -- -- 71
2020-09-02 05:00:00 11 4 Noroeste 6 Noroeste 0 -- -- 64
2020-09-02 04:00:00 13.2 2 Noroeste 10 Norte 0 -- -- 58
2020-09-02 03:00:00 14.4 5 Norte 17 Nordeste 0 -- -- 55
2020-09-02 02:00:00 15.7 9 Nordeste 14 Nordeste 0 -- -- 50
2020-09-02 01:00:00 16.6 6 Nordeste 12 Nordeste 0 -- -- 44
2020-09-02 00:00:00 17.7 6 Nordeste 17 Nordeste 0 -- -- 37
2020-09-01 23:00:00 19.3 7 Nordeste 19 Norte 0 -- -- 29
2020-09-01 22:00:00 21.1 4 Noroeste 9 Noroeste 0 -- -- 24
2020-09-01 21:00:00 23.7 5 Norte 14 Norte 0 -- -- 21
2020-09-01 20:00:00 25.6 9 Norte 21 Noroeste 0 -- -- 19
2020-09-01 19:00:00 26.7 8 Norte 17 Noroeste 0 -- -- 18
2020-09-01 18:00:00 26.6 9 Noroeste 21 Norte 0 -- -- 18
2020-09-01 17:00:00 26.3 9 Oeste 23 Oeste 0 -- -- 18
2020-09-01 16:00:00 27.2 6 Oeste 21 Oeste 0 -- -- 18
2020-09-01 15:00:00 26.1 5 Sudoeste 18 Norte 0 -- -- 20
2020-09-01 14:00:00 24.7 4 Noroeste 12 Norte 0 -- -- 22
2020-09-01 13:00:00 23.7 4 Norte 13 Este 0 -- -- 24
2020-09-01 12:00:00 21.9 4 Sudeste 7 Este 0 -- -- 28
2020-09-01 11:00:00 17.8 3 Sur 6 Sudoeste 0 -- -- 34
2020-09-01 10:00:00 14.2 3 Sudeste 7 Sudeste 0 -- -- 45
2020-09-01 09:00:00 12.7 2 Sur 7 Norte 0 -- -- 49
2020-09-01 08:00:00 11.8 8 Sur 11 Oeste 0 -- -- 52
2020-09-01 07:00:00 13.1 4 Noroeste 15 Sudeste 0 -- -- 47
2020-09-01 06:00:00 12.9 2 Este 7 Norte 0 -- -- 44
2020-09-01 05:00:00 12.2 2 Sudoeste 8 Sur 0 -- -- 46
2020-09-01 04:00:00 12 5 Sur 10 Sur 0 -- -- 48
2020-09-01 03:00:00 12 7 Sur 10 Sur 0 -- -- 48
2020-09-01 02:00:00 11.9 6 Sur 14 Sur 0 -- -- 46
2020-09-01 01:00:00 11.8 9 Sur 13 Sudoeste 0 -- -- 53
2020-09-01 00:00:00 14.1 5 Sur 9 Sur 0 -- -- 46
2020-08-31 23:00:00 16.2 2 Este 8 Nordeste 0 -- -- 32
2020-08-31 22:00:00 18.3 3 Nordeste 10 Nordeste 0 -- -- 31
2020-08-31 21:00:00 21 5 Norte 11 Nordeste 0 -- -- 26
2020-08-31 20:00:00 22.8 7 Nordeste 18 Oeste 0 -- -- 24
2020-08-31 19:00:00 24.3 12 Noroeste 28 Noroeste 0 -- -- 22
2020-08-31 18:00:00 24.3 9 Oeste 22 Noroeste 0 -- -- 23
2020-08-31 17:00:00 24.2 9 Oeste 22 Oeste 0 -- -- 22
2020-08-31 16:00:00 22.8 5 Noroeste 29 Oeste 0 -- -- 23
2020-08-31 15:00:00 23.5 9 Oeste 33 Sudoeste 0 -- -- 23
2020-08-31 14:00:00 23.1 7 Noroeste 19 Noroeste 0 -- -- 25
2020-08-31 13:00:00 21.8 8 Sudoeste 16 Sudoeste 0 -- -- 27
2020-08-31 12:00:00 19.9 9 Sudeste 17 Sudeste 0 -- -- 30
2020-08-31 11:00:00 17.1 7 Sudeste 11 Sudeste 0 -- -- 37
2020-08-31 10:00:00 12.6 5 Sur 9 Sur 0 -- -- 50
2020-08-31 09:00:00 7 3 Sudoeste 8 Sudoeste 0 -- -- 69
2020-08-31 08:00:00 3.9 6 Sur 10 Sur 0 -- -- 78
2020-08-31 07:00:00 4.4 5 Sudoeste 8 Sudoeste 0 -- -- 78
2020-08-31 06:00:00 5.2 3 Sur 7 Sur 0 -- -- 76
2020-08-31 05:00:00 6.2 3 Sur 9 Sur 0 -- -- 78
2020-08-31 04:00:00 7.4 2 Oeste 5 Norte 0 -- -- 68
2020-08-31 03:00:00 9.3 0 Calma 9 Este 0 -- -- 64
2020-08-31 02:00:00 10.6 5 Este 13 Este 0 -- -- 61
2020-08-31 01:00:00 11 3 Nordeste 12 Este 0 -- -- 57
2020-08-31 00:00:00 12.2 4 Nordeste 15 Nordeste 0 -- -- 53
2020-08-30 23:00:00 13.4 8 Este 16 Este 0 -- -- 46
2020-08-30 22:00:00 14.7 5 Nordeste 12 Este 0 -- -- 40
2020-08-30 21:00:00 16.5 8 Nordeste 14 Este 0 -- -- 36
2020-08-30 20:00:00 17.9 7 Nordeste 24 Nordeste 0 -- -- 35
2020-08-30 19:00:00 20 9 Este 22 Este 0 -- -- 31
2020-08-30 18:00:00 19.2 7 Nordeste 21 Este 0 -- -- 33
2020-08-30 17:00:00 18.5 9 Nordeste 27 Norte 0 -- -- 36
2020-08-30 16:00:00 18.6 9 Norte 25 Nordeste 0 -- -- 39
2020-08-30 15:00:00 17.6 7 Nordeste 21 Nordeste 0 -- -- 41
2020-08-30 14:00:00 17.3 10 Este 24 Este 0 -- -- 41
2020-08-30 13:00:00 15.5 9 Este 17 Este 0 -- -- 50
2020-08-30 12:00:00 14.3 9 Este 19 Nordeste 0 -- -- 56
2020-08-30 11:00:00 13.1 10 Nordeste 19 Este 0 -- -- 61
2020-08-30 10:00:00 11.6 3 Sudeste 6 Sur 0 -- -- 67
2020-08-30 09:00:00 7.7 3 Sur 10 Sur 0 -- -- 79
2020-08-30 08:00:00 5 4 Sur 9 Sur 0 -- -- 86
2020-08-30 07:00:00 5.5 2 Sur 11 Sur 0 -- -- 88
2020-08-30 06:00:00 6.5 3 Sudoeste 9 Sur 0 -- -- 80
2020-08-30 05:00:00 7 2 Norte 5 Este 0 -- -- 81
2020-08-30 04:00:00 8.6 3 Nordeste 7 Este 0 -- -- 74
2020-08-30 03:00:00 9 3 Sudeste 6 Este 0 -- -- 76
2020-08-30 02:00:00 9.7 4 Este 12 Nordeste 0 -- -- 74
2020-08-30 01:00:00 10.6 6 Nordeste 19 Nordeste 0 -- -- 71
2020-08-30 00:00:00 11.7 7 Nordeste 18 Nordeste 0 -- -- 67
2020-08-29 23:00:00 13.4 8 Nordeste 26 Norte 0 -- -- 61
2020-08-29 22:00:00 15.7 13 Nordeste 28 Nordeste 0 -- -- 47
2020-08-29 21:00:00 17.1 15 Norte 33 Norte 0 -- -- 44
2020-08-29 20:00:00 18.6 19 Norte 36 Norte 0 -- -- 40
2020-08-29 19:00:00 19.8 22 Norte 46 Noroeste 0 -- -- 35
2020-08-29 18:00:00 20.4 23 Norte 39 Norte 0 -- -- 34
2020-08-29 17:00:00 19.3 17 Norte 32 Norte 0 -- -- 38
2020-08-29 16:00:00 18.3 11 Norte 34 Noroeste 0.2 -- -- 49
2020-08-29 15:00:00 19.6 17 Norte 33 Noroeste 0 -- -- 37
2020-08-29 14:00:00 18.5 18 Norte 35 Noroeste 0 -- -- 41
2020-08-29 13:00:00 17.2 17 Norte 33 Noroeste 0 -- -- 43
2020-08-29 12:00:00 15.7 12 Norte 26 Nordeste 0 -- -- 51
2020-08-29 11:00:00 14.4 8 Noroeste 20 Norte 0 -- -- 55
2020-08-29 10:00:00 12.9 10 Norte 14 Norte 0 -- -- 58
2020-08-29 09:00:00 10.6 4 Noroeste 9 Norte 0 -- -- 73
2020-08-29 08:00:00 9.2 3 Oeste 8 Noroeste 0 -- -- 81
2020-08-29 07:00:00 10.7 5 Noroeste 13 Noroeste 0 -- -- 77
2020-08-29 06:00:00 12 7 Norte 12 Norte 0 -- -- 72
2020-08-29 05:00:00 11.6 8 Norte 15 Nordeste 0 -- -- 74
2020-08-29 04:00:00 12.5 9 Norte 15 Norte 0 -- -- 71
2020-08-29 03:00:00 12.9 7 Norte 16 Norte 0 -- -- 70
2020-08-29 02:00:00 13.6 9 Norte 18 Nordeste 0 -- -- 67
2020-08-29 01:00:00 14.1 9 Nordeste 19 Norte 0 -- -- 67
2020-08-29 00:00:00 15.9 10 Norte 30 Noroeste 0 -- -- 48
2020-08-28 23:00:00 17.3 17 Noroeste 28 Noroeste 0 -- -- 42
2020-08-28 22:00:00 19.3 19 Noroeste 32 Oeste 0 -- -- 39
2020-08-28 21:00:00 22 17 Noroeste 32 Noroeste 0 -- -- 30
2020-08-28 20:00:00 24.4 18 Noroeste 35 Noroeste 0 -- -- 24
2020-08-28 19:00:00 26.6 19 Oeste 35 Noroeste 0 -- -- 20
2020-08-28 18:00:00 27.1 16 Noroeste 36 Oeste 0 -- -- 19
2020-08-28 17:00:00 27 22 Noroeste 42 Noroeste 0 -- -- 20
2020-08-28 16:00:00 27.5 15 Oeste 34 Noroeste 0 -- -- 19
2020-08-28 15:00:00 26.3 15 Oeste 30 Noroeste 0 -- -- 25
2020-08-28 14:00:00 25 17 Oeste 28 Noroeste 0 -- -- 35
2020-08-28 13:00:00 23.2 11 Oeste 21 Oeste 0 -- -- 51
2020-08-28 12:00:00 21 7 Oeste 22 Oeste 0 -- -- 61
2020-08-28 11:00:00 19.6 12 Oeste 28 Oeste 0 -- -- 68
2020-08-28 10:00:00 18.6 14 Oeste 26 Oeste 0 -- -- 73
2020-08-28 09:00:00 17.2 14 Oeste 25 Oeste 0 -- -- 77
2020-08-28 08:00:00 16.3 9 Oeste 19 Oeste 0 -- -- 80
2020-08-28 07:00:00 16.7 9 Oeste 15 Oeste 0 -- -- 75
2020-08-28 06:00:00 17.5 13 Noroeste 21 Oeste 0 -- -- 67
2020-08-28 05:00:00 18.8 8 Noroeste 21 Oeste 0 -- -- 64
2020-08-28 04:00:00 19.5 9 Oeste 14 Noroeste 0 -- -- 62
2020-08-28 03:00:00 20 2 Sudoeste 7 Sudoeste 0 -- -- 63
2020-08-28 02:00:00 21.6 3 Noroeste 13 Noroeste 0 -- -- 59
2020-08-28 01:00:00 23.2 9 Noroeste 18 Norte 0 -- -- 53
2020-08-28 00:00:00 24.7 12 Noroeste 18 Noroeste 0 -- -- 44
2020-08-27 23:00:00 25.5 9 Noroeste 18 Oeste 0 -- -- 34
2020-08-27 22:00:00 27.2 7 Noroeste 20 Noroeste 0 -- -- 28
2020-08-27 21:00:00 30 11 Noroeste 20 Noroeste 0 -- -- 28
2020-08-27 20:00:00 31.9 10 Noroeste 25 Noroeste 0 -- -- 28
2020-08-27 19:00:00 33.1 8 Oeste 19 Noroeste 0 -- -- 26
2020-08-27 18:00:00 33.4 10 Noroeste 23 Sudoeste 0 -- -- 25
2020-08-27 17:00:00 33.2 6 Sudoeste 19 Norte 0 -- -- 25
2020-08-27 16:00:00 32.7 6 Sur 18 Oeste 0 -- -- 27
2020-08-27 15:00:00 31.8 10 Oeste 20 Noroeste 0 -- -- 28
2020-08-27 14:00:00 30.3 8 Norte 20 Noroeste 0 -- -- 37
2020-08-27 13:00:00 28.7 9 Noroeste 19 Noroeste 0 -- -- 42
2020-08-27 12:00:00 27.1 12 Norte 18 Norte 0 -- -- 45
2020-08-27 11:00:00 25.2 6 Norte 13 Oeste 0 -- -- 49
2020-08-27 10:00:00 22.5 9 Oeste 14 Oeste 0 -- -- 54
2020-08-27 09:00:00 18.2 4 Sur 7 Sur 0 -- -- 57
2020-08-27 08:00:00 15.2 5 Sur 9 Sur 0 -- -- 63
2020-08-27 07:00:00 15.1 6 Sur 10 Sur 0 -- -- 68
2020-08-27 06:00:00 15.4 8 Sur 12 Sur 0 -- -- 65
2020-08-27 05:00:00 17.1 5 Sur 10 Sur 0 -- -- 58
2020-08-27 04:00:00 16.9 9 Sur 12 Sur 0 -- -- 55
2020-08-27 03:00:00 17.7 8 Sur 11 Sur 0 -- -- 53
2020-08-27 02:00:00 18.9 4 Sudoeste 10 Sur 0 -- -- 52
2020-08-27 01:00:00 19.1 8 Sur 12 Noroeste 0 -- -- 56
2020-08-27 00:00:00 21.2 3 Sur 6 Sur 0 -- -- 52
2020-08-26 23:00:00 24.2 0 Calma 5 Norte 0 -- -- 37
2020-08-26 22:00:00 27.4 4 Norte 13 Norte 0 -- -- 30
2020-08-26 21:00:00 29.7 9 Norte 25 Noroeste 0 -- -- 27
2020-08-26 20:00:00 32.3 11 Norte 19 Norte 0 -- -- 23
2020-08-26 19:00:00 33.1 13 Noroeste 24 Noroeste 0 -- -- 23
2020-08-26 18:00:00 33.7 12 Noroeste 23 Noroeste 0 -- -- 22
2020-08-26 17:00:00 33.8 12 Noroeste 25 Noroeste 0 -- -- 22
2020-08-26 16:00:00 33 13 Noroeste 28 Oeste 0 -- -- 23
2020-08-26 15:00:00 32 10 Noroeste 22 Noroeste 0 -- -- 26
2020-08-26 14:00:00 31.1 11 Norte 22 Oeste 0 -- -- 29
2020-08-26 13:00:00 29.4 8 Noroeste 16 Noroeste 0 -- -- 33
2020-08-26 12:00:00 27.3 4 Sur 10 Este 0 -- -- 38
2020-08-26 11:00:00 24.1 6 Noroeste 12 Norte 0 -- -- 47
2020-08-26 10:00:00 20.9 3 Sudeste 8 Noroeste 0 -- -- 50
2020-08-26 09:00:00 17 2 Este 5 Sudeste 0 -- -- 52
2020-08-26 08:00:00 13.2 4 Sudoeste 10 Sur 0 -- -- 64
2020-08-26 07:00:00 13.3 5 Sur 15 Sur 0 -- -- 63
2020-08-26 06:00:00 14.6 9 Sur 13 Sur 0 -- -- 56
2020-08-26 05:00:00 14.7 8 Sur 12 Sur 0 -- -- 63
2020-08-26 04:00:00 15.6 8 Sur 13 Sur 0 -- -- 58
2020-08-26 03:00:00 16.2 8 Sur 13 Sur 0 -- -- 55
2020-08-26 02:00:00 17.8 8 Sur 12 Sur 0 -- -- 46
2020-08-26 01:00:00 18.8 9 Sur 13 Sur 0 -- -- 46
2020-08-26 00:00:00 22.3 0 Calma 8 Noroeste 0 -- -- 34